Time;durP1;ratioP1;P1;durP2;ratioP2;P2;SDS_P1;SDS_P2;PMS_P1;PMS_P2;Temp;Humidity;BMP_temperature;BMP_pressure;BME280_temperature;BME280_humidity;BME280_pressure;Samples;Min_cycle;Max_cycle;Signal;HPM_P1;HPM_P2
2022/02/17 00:02:13;;;;;;;;;;;16.90;38.60;;;;;;8335560;28;20012;-52
2022/02/17 00:06:14;;;;;;;;;;;16.90;38.70;;;;;;8335819;28;19933;-50
2022/02/17 00:10:15;;;;;;;;;;;16.90;38.70;;;;;;8335862;28;19940;-50
2022/02/17 00:14:16;;;;;;;;;;;16.90;38.70;;;;;;8335493;28;20364;-50
2022/02/17 00:18:21;;;;;;;;;;;16.80;38.70;;;;;;8335524;28;19921;-54
2022/02/17 00:22:21;;;;;;;;;;;16.80;38.80;;;;;;8333496;28;20011;-54
2022/02/17 00:26:22;;;;;;;;;;;16.80;39.00;;;;;;8335287;28;19917;-52
2022/02/17 00:30:22;;;;;;;;;;;16.80;39.00;;;;;;8335211;28;19971;-52
2022/02/17 00:34:23;;;;;;;;;;;16.80;39.00;;;;;;8334916;28;20358;-50
2022/02/17 00:38:23;;;;;;;;;;;16.80;39.00;;;;;;8335075;28;19940;-53
2022/02/17 00:42:24;;;;;;;;;;;16.80;39.00;;;;;;8333707;28;19925;-55
2022/02/17 00:46:26;;;;;;;;;;;16.80;39.10;;;;;;8334261;28;19917;-56
2022/02/17 00:50:27;;;;;;;;;;;16.80;39.10;;;;;;8333809;28;20020;-53
2022/02/17 00:54:28;;;;;;;;;;;16.80;39.10;;;;;;8334710;28;19921;-51
2022/02/17 00:58:28;;;;;;;;;;;16.80;39.10;;;;;;8334045;28;19921;-53
2022/02/17 01:02:28;;;;;;;;;;;16.80;39.10;;;;;;8334131;28;20467;-50
2022/02/17 01:06:29;;;;;;;;;;;16.80;39.10;;;;;;8334273;28;20373;-56
2022/02/17 01:10:30;;;;;;;;;;;16.80;39.20;;;;;;8333786;28;19928;-53
2022/02/17 01:14:30;;;;;;;;;;;16.80;39.10;;;;;;8333913;28;19971;-51
2022/02/17 01:18:31;;;;;;;;;;;16.80;39.10;;;;;;8333852;28;19925;-55
2022/02/17 01:22:31;;;;;;;;;;;16.90;39.10;;;;;;8333166;28;19925;-51
2022/02/17 01:26:32;;;;;;;;;;;16.80;38.90;;;;;;8333387;28;19924;-54
2022/02/17 01:30:32;;;;;;;;;;;16.80;39.00;;;;;;8333738;28;20051;-51
2022/02/17 01:34:33;;;;;;;;;;;16.80;39.10;;;;;;8331400;28;19951;-51
2022/02/17 01:38:37;;;;;;;;;;;16.90;39.20;;;;;;8332916;28;19923;-51
2022/02/17 01:42:37;;;;;;;;;;;16.90;39.30;;;;;;8333150;28;19947;-51
2022/02/17 01:46:39;;;;;;;;;;;16.80;39.30;;;;;;8332299;28;19917;-54
2022/02/17 01:50:41;;;;;;;;;;;16.80;39.30;;;;;;8333132;28;19952;-51
2022/02/17 01:54:44;;;;;;;;;;;16.90;39.30;;;;;;8332226;28;20340;-53
2022/02/17 01:58:45;;;;;;;;;;;16.80;39.30;;;;;;8331978;28;19917;-51
2022/02/17 02:02:46;;;;;;;;;;;16.90;39.40;;;;;;8316809;28;20294;-50
2022/02/17 02:06:47;;;;;;;;;;;16.90;39.50;;;;;;8306122;28;19924;-54
2022/02/17 02:10:48;;;;;;;;;;;16.90;39.50;;;;;;8331798;28;19921;-51
2022/02/17 02:14:50;;;;;;;;;;;16.90;39.50;;;;;;8331984;28;19975;-54
2022/02/17 02:18:50;;;;;;;;;;;16.90;39.60;;;;;;8331895;28;19917;-51
2022/02/17 02:22:51;;;;;;;;;;;16.90;39.60;;;;;;8331355;28;20445;-51
2022/02/17 02:26:51;;;;;;;;;;;16.90;39.60;;;;;;8331658;28;19940;-54
2022/02/17 02:30:52;;;;;;;;;;;16.90;39.60;;;;;;8332025;28;19924;-52
2022/02/17 02:34:53;;;;;;;;;;;16.90;39.50;;;;;;8331179;28;19917;-53
2022/02/17 02:38:54;;;;;;;;;;;16.80;39.60;;;;;;8331906;28;20433;-52
2022/02/17 02:42:54;;;;;;;;;;;16.90;39.50;;;;;;8331258;28;20011;-51
2022/02/17 02:46:55;;;;;;;;;;;16.90;39.40;;;;;;8330550;28;19917;-55
2022/02/17 02:50:55;;;;;;;;;;;16.90;39.40;;;;;;8331329;28;19913;-52
2022/02/17 02:54:55;;;;;;;;;;;16.90;39.30;;;;;;8330846;28;20057;-51
2022/02/17 02:58:56;;;;;;;;;;;16.90;39.30;;;;;;8330472;28;19979;-54
2022/02/17 03:02:56;;;;;;;;;;;16.90;39.30;;;;;;8329302;28;19936;-51
2022/02/17 03:06:57;;;;;;;;;;;16.90;39.30;;;;;;8329683;28;20381;-53
2022/02/17 03:10:57;;;;;;;;;;;16.80;39.20;;;;;;8345452;28;19959;-52
2022/02/17 03:14:58;;;;;;;;;;;16.90;39.30;;;;;;8334151;28;19917;-54
2022/02/17 03:18:59;;;;;;;;;;;16.90;39.20;;;;;;8330210;28;19917;-51
2022/02/17 03:22:59;;;;;;;;;;;16.90;39.20;;;;;;8329771;28;19925;-52
2022/02/17 03:26:59;;;;;;;;;;;16.80;39.70;;;;;;8330225;28;19917;-53
2022/02/17 03:31:00;;;;;;;;;;;16.80;39.30;;;;;;8330490;28;20008;-51
2022/02/17 03:35:01;;;;;;;;;;;16.90;39.40;;;;;;8329529;28;19924;-52
2022/02/17 03:39:01;;;;;;;;;;;16.90;39.40;;;;;;8330144;28;19921;-53
2022/02/17 03:43:02;;;;;;;;;;;16.90;39.40;;;;;;8329972;28;19952;-53
2022/02/17 03:47:02;;;;;;;;;;;16.90;39.40;;;;;;8329734;28;19917;-53
2022/02/17 03:51:03;;;;;;;;;;;16.90;39.40;;;;;;8330513;28;19917;-55
2022/02/17 03:55:04;;;;;;;;;;;16.90;39.50;;;;;;8329771;28;19921;-55
2022/02/17 03:59:07;;;;;;;;;;;16.90;39.60;;;;;;8329202;28;19917;-53
2022/02/17 04:03:08;;;;;;;;;;;16.90;39.80;;;;;;8328258;28;19932;-53
2022/02/17 04:07:08;;;;;;;;;;;16.90;39.60;;;;;;8329628;28;19917;-54
2022/02/17 04:11:09;;;;;;;;;;;16.80;39.70;;;;;;8329598;28;20320;-50
2022/02/17 04:15:10;;;;;;;;;;;16.90;39.80;;;;;;8329495;28;19924;-52
2022/02/17 04:19:11;;;;;;;;;;;16.90;39.80;;;;;;8335258;28;20392;-51
2022/02/17 04:23:11;;;;;;;;;;;16.90;39.80;;;;;;8335270;28;19932;-51
2022/02/17 04:27:12;;;;;;;;;;;16.90;39.90;;;;;;8335512;28;19992;-51
2022/02/17 04:31:12;;;;;;;;;;;16.90;40.00;;;;;;8335523;28;19917;-54
2022/02/17 04:35:13;;;;;;;;;;;16.90;40.00;;;;;;8334612;28;19917;-55
2022/02/17 04:39:13;;;;;;;;;;;16.90;40.00;;;;;;8335407;28;20370;-52
2022/02/17 04:43:14;;;;;;;;;;;16.90;40.10;;;;;;8334888;28;20000;-52
2022/02/17 04:47:15;;;;;;;;;;;16.90;40.10;;;;;;8334308;28;19942;-51
2022/02/17 04:51:15;;;;;;;;;;;16.90;40.00;;;;;;8334895;28;19921;-55
2022/02/17 04:55:16;;;;;;;;;;;16.90;40.00;;;;;;8333949;28;19931;-54
2022/02/17 04:59:16;;;;;;;;;;;17.00;40.10;;;;;;8334393;28;19921;-53
2022/02/17 05:03:17;;;;;;;;;;;17.00;40.00;;;;;;8322624;28;20263;-54
2022/02/17 05:07:17;;;;;;;;;;;16.90;40.10;;;;;;8332533;28;19921;-53
2022/02/17 05:11:20;;;;;;;;;;;17.00;40.10;;;;;;8334426;28;19913;-52
2022/02/17 05:15:20;;;;;;;;;;;16.90;40.10;;;;;;8334079;28;19996;-51
2022/02/17 05:19:21;;;;;;;;;;;17.00;40.10;;;;;;8333352;28;19917;-51
2022/02/17 05:23:21;;;;;;;;;;;17.00;40.10;;;;;;8332362;28;19940;-54
2022/02/17 05:27:22;;;;;;;;;;;16.90;40.00;;;;;;8333026;28;19917;-54
2022/02/17 05:31:22;;;;;;;;;;;17.00;40.10;;;;;;8332863;28;20290;-52
2022/02/17 05:35:23;;;;;;;;;;;17.00;40.10;;;;;;8333544;28;20385;-54
2022/02/17 05:39:23;;;;;;;;;;;17.00;40.10;;;;;;8333101;28;19917;-51
2022/02/17 05:43:24;;;;;;;;;;;17.00;40.10;;;;;;8332491;28;19925;-51
2022/02/17 05:47:24;;;;;;;;;;;17.00;40.10;;;;;;8333064;28;19925;-53
2022/02/17 05:51:25;;;;;;;;;;;17.00;40.10;;;;;;8332602;28;19924;-53
2022/02/17 05:55:26;;;;;;;;;;;16.90;40.10;;;;;;8332300;28;19975;-54
2022/02/17 05:59:26;;;;;;;;;;;17.00;40.10;;;;;;8332486;28;19921;-51
2022/02/17 06:03:27;;;;;;;;;;;17.00;40.10;;;;;;8332292;28;20294;-50
2022/02/17 06:07:27;;;;;;;;;;;17.00;40.00;;;;;;8331848;28;19966;-54
2022/02/17 06:11:28;;;;;;;;;;;17.00;40.00;;;;;;8332118;28;19921;-54
2022/02/17 06:15:28;;;;;;;;;;;17.00;40.00;;;;;;8332228;28;19970;-53
2022/02/17 06:19:29;;;;;;;;;;;17.00;40.00;;;;;;8331547;28;19917;-54
2022/02/17 06:23:30;;;;;;;;;;;17.00;40.00;;;;;;8331582;28;20012;-52
2022/02/17 06:27:30;;;;;;;;;;;17.00;40.10;;;;;;8331973;28;20336;-56
2022/02/17 06:31:31;;;;;;;;;;;17.00;40.10;;;;;;8331087;28;20003;-55
2022/02/17 06:35:33;;;;;;;;;;;17.00;40.10;;;;;;8331382;28;20397;-55
2022/02/17 06:39:33;;;;;;;;;;;17.00;40.10;;;;;;8331229;28;19917;-53
2022/02/17 06:43:36;;;;;;;;;;;17.00;40.10;;;;;;8330483;28;19925;-55
2022/02/17 06:47:37;;;;;;;;;;;17.00;40.10;;;;;;8331125;28;19967;-54
2022/02/17 06:51:38;;;;;;;;;;;17.00;40.10;;;;;;8331034;28;20420;-53
2022/02/17 06:55:38;;;;;;;;;;;17.10;40.20;;;;;;8330194;28;20460;-56
2022/02/17 06:59:39;;;;;;;;;;;17.00;40.00;;;;;;8330857;28;19924;-54
2022/02/17 07:03:40;;;;;;;;;;;17.10;40.10;;;;;;8330436;28;19925;-53
2022/02/17 07:07:40;;;;;;;;;;;17.10;40.10;;;;;;8330263;28;19943;-54
2022/02/17 07:11:41;;;;;;;;;;;17.10;40.10;;;;;;8330388;28;19917;-52
2022/02/17 07:15:43;;;;;;;;;;;17.10;40.10;;;;;;8330417;28;19917;-52
2022/02/17 07:19:43;;;;;;;;;;;17.10;40.20;;;;;;8329596;28;20016;-53
2022/02/17 07:23:44;;;;;;;;;;;17.10;40.10;;;;;;8330362;28;20271;-55
2022/02/17 07:27:44;;;;;;;;;;;17.10;40.10;;;;;;8330617;28;19963;-53
2022/02/17 07:31:45;;;;;;;;;;;17.10;40.20;;;;;;8329465;28;20295;-53
2022/02/17 07:35:45;;;;;;;;;;;17.10;40.20;;;;;;8330249;28;19924;-51
2022/02/17 07:39:47;;;;;;;;;;;17.10;40.10;;;;;;8329871;28;19968;-53
2022/02/17 07:43:48;;;;;;;;;;;17.10;40.10;;;;;;8329689;28;19921;-53
2022/02/17 07:47:49;;;;;;;;;;;17.10;40.20;;;;;;8330077;28;19962;-53
2022/02/17 07:51:50;;;;;;;;;;;17.10;40.20;;;;;;8331994;28;19921;-53
2022/02/17 07:55:50;;;;;;;;;;;17.10;40.20;;;;;;8336005;28;19918;-50
2022/02/17 07:59:51;;;;;;;;;;;17.20;40.30;;;;;;8336387;28;19917;-54
2022/02/17 08:03:51;;;;;;;;;;;17.20;40.30;;;;;;8336247;28;19921;-51
2022/02/17 08:07:52;;;;;;;;;;;17.20;40.30;;;;;;8335780;28;19925;-54
2022/02/17 08:11:52;;;;;;;;;;;17.10;40.30;;;;;;8311254;28;20000;-53
2022/02/17 08:15:54;;;;;;;;;;;17.20;40.40;;;;;;8323194;28;19959;-51
2022/02/17 08:19:55;;;;;;;;;;;17.20;40.30;;;;;;8334022;28;19924;-53
2022/02/17 08:23:55;;;;;;;;;;;17.20;40.40;;;;;;8335409;28;19921;-54
2022/02/17 08:27:56;;;;;;;;;;;17.20;40.30;;;;;;8335797;28;20365;-53
2022/02/17 08:31:56;;;;;;;;;;;17.20;40.40;;;;;;8334996;28;20434;-53
2022/02/17 08:35:57;;;;;;;;;;;17.20;40.40;;;;;;8335394;28;19925;-52
2022/02/17 08:39:57;;;;;;;;;;;17.20;40.40;;;;;;8335031;28;19917;-53
2022/02/17 08:43:58;;;;;;;;;;;17.20;40.40;;;;;;8334481;28;19925;-52
2022/02/17 08:48:00;;;;;;;;;;;17.30;40.50;;;;;;8335141;28;19917;-54
2022/02/17 08:52:00;;;;;;;;;;;17.20;40.40;;;;;;8334783;28;19917;-51
2022/02/17 08:56:01;;;;;;;;;;;17.30;40.40;;;;;;8334269;28;19925;-49
2022/02/17 09:00:02;;;;;;;;;;;17.20;40.40;;;;;;8334386;28;20016;-53
2022/02/17 09:04:02;;;;;;;;;;;17.30;40.50;;;;;;8333236;28;19917;-53
2022/02/17 09:08:03;;;;;;;;;;;17.30;40.40;;;;;;8333964;28;19924;-52
2022/02/17 09:12:04;;;;;;;;;;;17.30;40.50;;;;;;8334330;28;20366;-54
2022/02/17 09:16:05;;;;;;;;;;;17.30;40.40;;;;;;8333892;28;19925;-49
2022/02/17 09:20:06;;;;;;;;;;;17.30;40.40;;;;;;8333241;28;19917;-52
2022/02/17 09:24:07;;;;;;;;;;;17.30;40.30;;;;;;8333912;28;19982;-53
2022/02/17 09:28:09;;;;;;;;;;;17.30;40.40;;;;;;8333783;28;19924;-52
2022/02/17 09:32:10;;;;;;;;;;;17.40;40.40;;;;;;8333281;28;19917;-49
2022/02/17 09:36:10;;;;;;;;;;;17.40;40.50;;;;;;8334230;28;20107;-50
2022/02/17 09:40:11;;;;;;;;;;;17.30;40.40;;;;;;8333359;28;20405;-52
2022/02/17 09:44:11;;;;;;;;;;;17.40;40.40;;;;;;8332675;28;20278;-52
2022/02/17 09:48:12;;;;;;;;;;;17.30;40.40;;;;;;8332991;28;19921;-53
2022/02/17 09:52:13;;;;;;;;;;;17.30;40.30;;;;;;8339922;28;19928;-52
2022/02/17 09:56:14;;;;;;;;;;;17.40;40.40;;;;;;8332135;28;20380;-54
2022/02/17 10:00:14;;;;;;;;;;;17.40;40.40;;;;;;8332431;28;19921;-53
2022/02/17 10:04:16;;;;;;;;;;;17.40;40.40;;;;;;8327276;28;19925;-50
2022/02/17 10:08:20;;;;;;;;;;;17.40;40.30;;;;;;8332137;28;19917;-53
2022/02/17 10:12:22;;;;;;;;;;;17.40;40.30;;;;;;8332247;28;19924;-51
2022/02/17 10:16:22;;;;;;;;;;;17.40;40.30;;;;;;8331350;28;19917;-54
2022/02/17 10:20:23;;;;;;;;;;;17.50;40.30;;;;;;8331799;28;19925;-53
2022/02/17 10:24:34;;;;;;;;;;;17.50;40.80;;;;;;8330439;28;19956;-52
2022/02/17 10:28:36;;;;;;;;;;;17.50;40.30;;;;;;8331331;28;20352;-53
2022/02/17 10:32:50;;;;;;;;;;;17.50;40.30;;;;;;8331420;28;19917;-54
2022/02/17 10:36:50;;;;;;;;;;;17.50;40.30;;;;;;8331475;28;19956;-51
2022/02/17 10:40:54;;;;;;;;;;;17.60;40.30;;;;;;8330652;28;20016;-51
2022/02/17 10:44:54;;;;;;;;;;;17.60;40.30;;;;;;8331229;28;19960;-55
2022/02/17 10:48:54;;;;;;;;;;;17.60;40.30;;;;;;8330997;28;20370;-51
2022/02/17 10:52:55;;;;;;;;;;;17.60;40.30;;;;;;8330553;28;20405;-54
2022/02/17 10:57:01;;;;;;;;;;;17.60;40.30;;;;;;8330791;28;20005;-53
2022/02/17 11:01:06;;;;;;;;;;;17.60;40.30;;;;;;8330645;28;19925;-54
2022/02/17 11:05:07;;;;;;;;;;;17.60;40.30;;;;;;8330153;28;19924;-53
2022/02/17 11:09:08;;;;;;;;;;;17.60;40.40;;;;;;8330584;28;19974;-51
2022/02/17 11:13:12;;;;;;;;;;;17.60;40.40;;;;;;8329444;28;19917;-54
2022/02/17 11:17:13;;;;;;;;;;;17.60;40.40;;;;;;8329584;28;20276;-53
2022/02/17 11:21:15;;;;;;;;;;;17.70;40.50;;;;;;8329158;28;19932;-54
2022/02/17 11:25:16;;;;;;;;;;;17.70;40.50;;;;;;8329327;28;19924;-50
2022/02/17 11:29:27;;;;;;;;;;;17.70;40.50;;;;;;8330144;28;19913;-53
2022/02/17 11:33:29;;;;;;;;;;;17.70;40.40;;;;;;8330179;28;19929;-51
2022/02/17 11:37:30;;;;;;;;;;;17.70;40.40;;;;;;8329517;28;19965;-52
2022/02/17 11:41:35;;;;;;;;;;;17.70;40.40;;;;;;8329969;28;20301;-55
2022/02/17 11:45:53;;;;;;;;;;;17.70;40.30;;;;;;8329771;28;19924;-56
2022/02/17 11:49:54;;;;;;;;;;;17.70;40.30;;;;;;8329407;28;20036;-55
2022/02/17 11:54:16;;;;;;;;;;;17.80;40.30;;;;;;8329812;28;19925;-53
2022/02/17 11:58:40;;;;;;;;;;;17.80;40.30;;;;;;8329339;28;19975;-55
2022/02/17 12:02:41;;;;;;;;;;;17.80;40.30;;;;;;8321397;28;19935;-53
2022/02/17 12:06:45;;;;;;;;;;;17.80;40.20;;;;;;8329784;28;20008;-53
2022/02/17 12:10:47;;;;;;;;;;;17.80;40.70;;;;;;8329033;28;19917;-53
2022/02/17 12:14:55;;;;;;;;;;;17.80;40.10;;;;;;8329517;28;19925;-52
2022/02/17 12:18:56;;;;;;;;;;;17.80;40.10;;;;;;8329377;28;19921;-52
2022/02/17 12:23:06;;;;;;;;;;;17.80;40.00;;;;;;8328693;28;19937;-49
2022/02/17 12:27:06;;;;;;;;;;;17.80;39.90;;;;;;8329526;28;19917;-52
2022/02/17 12:31:07;;;;;;;;;;;17.90;39.90;;;;;;8329149;28;19917;-52
2022/02/17 12:35:07;;;;;;;;;;;17.80;39.90;;;;;;8328927;28;19943;-53
2022/02/17 12:39:08;;;;;;;;;;;17.90;39.90;;;;;;8333028;28;19924;-52
2022/02/17 12:43:09;;;;;;;;;;;17.90;39.90;;;;;;8334839;28;19932;-52
2022/02/17 12:47:11;;;;;;;;;;;17.90;39.90;;;;;;8345877;28;19924;-50
2022/02/17 12:51:24;;;;;;;;;;;17.90;39.90;;;;;;8334529;28;19963;-49
2022/02/17 12:55:42;;;;;;;;;;;17.90;39.90;;;;;;8334060;28;19927;-53
2022/02/17 12:59:44;;;;;;;;;;;18.00;40.00;;;;;;8334571;28;19925;-50
2022/02/17 13:03:44;;;;;;;;;;;17.90;39.90;;;;;;8334198;28;19932;-52
2022/02/17 13:07:45;;;;;;;;;;;18.00;40.00;;;;;;8333856;28;20392;-49
2022/02/17 13:11:46;;;;;;;;;;;18.00;40.00;;;;;;8333762;28;20393;-52
2022/02/17 13:15:47;;;;;;;;;;;18.00;40.00;;;;;;8333907;28;20176;-50
2022/02/17 13:19:47;;;;;;;;;;;18.00;40.00;;;;;;8333407;28;20055;-50
2022/02/17 13:23:48;;;;;;;;;;;18.00;40.00;;;;;;8333343;28;20432;-51
2022/02/17 13:27:51;;;;;;;;;;;18.00;40.00;;;;;;8333449;28;19921;-51
2022/02/17 13:31:52;;;;;;;;;;;18.00;40.00;;;;;;8332914;28;19929;-50
2022/02/17 13:35:56;;;;;;;;;;;18.00;39.90;;;;;;8333347;28;19943;-53
2022/02/17 13:39:57;;;;;;;;;;;18.00;40.00;;;;;;8333452;28;19917;-50
2022/02/17 13:43:58;;;;;;;;;;;18.00;40.00;;;;;;8332388;28;20417;-51
2022/02/17 13:47:59;;;;;;;;;;;18.00;39.90;;;;;;8333086;28;19924;-50
2022/02/17 13:51:59;;;;;;;;;;;18.00;40.00;;;;;;8331857;28;20409;-51
2022/02/17 13:56:01;;;;;;;;;;;18.00;40.00;;;;;;8332158;28;19918;-51
2022/02/17 14:00:06;;;;;;;;;;;18.00;40.00;;;;;;8332689;28;19924;-52
2022/02/17 14:04:14;;;;;;;;;;;18.00;40.00;;;;;;8332219;28;19921;-53
2022/02/17 14:08:15;;;;;;;;;;;18.00;40.00;;;;;;8324173;28;19953;-53
2022/02/17 14:12:18;;;;;;;;;;;18.00;40.00;;;;;;8331384;28;21229;-53
2022/02/17 14:16:18;;;;;;;;;;;18.00;40.00;;;;;;8331602;28;19917;-54
2022/02/17 14:20:19;;;;;;;;;;;18.10;40.10;;;;;;8332185;28;20425;-53
2022/02/17 14:24:20;;;;;;;;;;;18.10;40.10;;;;;;8331657;28;19921;-53
2022/02/17 14:28:20;;;;;;;;;;;18.10;40.10;;;;;;8331150;28;19917;-52
2022/02/17 14:32:21;;;;;;;;;;;18.10;40.10;;;;;;8331495;28;19917;-55
2022/02/17 14:36:21;;;;;;;;;;;18.10;40.00;;;;;;8331191;28;19924;-53
2022/02/17 14:40:22;;;;;;;;;;;18.10;40.00;;;;;;8330654;28;19921;-53
2022/02/17 14:44:23;;;;;;;;;;;18.10;39.90;;;;;;8331037;28;19964;-51
2022/02/17 14:48:23;;;;;;;;;;;18.10;39.90;;;;;;8330994;28;19948;-53
2022/02/17 14:52:24;;;;;;;;;;;18.10;39.80;;;;;;8330257;28;19921;-54
2022/02/17 14:56:24;;;;;;;;;;;18.10;39.80;;;;;;8330674;28;20003;-54
2022/02/17 15:00:25;;;;;;;;;;;18.10;39.80;;;;;;8329848;28;20270;-55
2022/02/17 15:04:25;;;;;;;;;;;18.10;39.80;;;;;;8329731;28;20016;-55
2022/02/17 15:08:26;;;;;;;;;;;18.10;39.80;;;;;;8330319;28;19917;-50
2022/02/17 15:12:26;;;;;;;;;;;18.10;39.70;;;;;;8330521;28;19951;-51
2022/02/17 15:16:27;;;;;;;;;;;18.00;39.70;;;;;;8329824;28;20016;-51
2022/02/17 15:20:27;;;;;;;;;;;18.10;39.70;;;;;;8330610;28;19925;-53
2022/02/17 15:24:28;;;;;;;;;;;18.10;39.70;;;;;;8329975;28;19917;-49
2022/02/17 15:28:28;;;;;;;;;;;18.00;39.60;;;;;;8329531;28;19921;-54
2022/02/17 15:32:29;;;;;;;;;;;18.00;40.10;;;;;;8330384;28;19917;-52
2022/02/17 15:36:29;;;;;;;;;;;18.00;39.60;;;;;;8330195;28;19913;-51
2022/02/17 15:40:30;;;;;;;;;;;18.00;39.50;;;;;;8329564;28;20278;-51
2022/02/17 15:44:35;;;;;;;;;;;18.10;39.60;;;;;;8328482;28;19921;-53
2022/02/17 15:48:35;;;;;;;;;;;18.00;39.60;;;;;;8329920;28;20011;-54
2022/02/17 15:52:36;;;;;;;;;;;18.00;39.60;;;;;;8329036;28;19937;-52
2022/02/17 15:56:36;;;;;;;;;;;18.10;39.60;;;;;;8329509;28;19924;-53
2022/02/17 16:00:37;;;;;;;;;;;18.10;39.60;;;;;;8329527;28;19975;-53
2022/02/17 16:04:37;;;;;;;;;;;18.10;39.60;;;;;;8329024;28;19924;-55
2022/02/17 16:08:38;;;;;;;;;;;18.10;39.60;;;;;;8329268;28;19971;-53
2022/02/17 16:12:39;;;;;;;;;;;18.10;39.60;;;;;;8330851;28;19971;-52
2022/02/17 16:16:41;;;;;;;;;;;18.10;39.50;;;;;;8335151;28;20362;-54
2022/02/17 16:20:41;;;;;;;;;;;18.10;39.50;;;;;;8335558;28;19987;-52
2022/02/17 16:24:42;;;;;;;;;;;18.10;39.50;;;;;;8335302;28;19917;-49
2022/02/17 16:28:43;;;;;;;;;;;18.00;39.50;;;;;;8334486;28;19917;-51
2022/02/17 16:32:43;;;;;;;;;;;18.00;39.40;;;;;;8335289;28;19917;-53
2022/02/17 16:36:44;;;;;;;;;;;18.10;39.50;;;;;;8335344;28;19971;-54
2022/02/17 16:40:44;;;;;;;;;;;18.10;39.40;;;;;;8334230;28;19957;-54
2022/02/17 16:44:45;;;;;;;;;;;18.10;39.40;;;;;;8334731;28;19921;-53
2022/02/17 16:48:47;;;;;;;;;;;18.10;39.50;;;;;;8334787;28;19918;-52
2022/02/17 16:52:48;;;;;;;;;;;18.10;39.40;;;;;;8334227;28;19925;-52
2022/02/17 16:56:49;;;;;;;;;;;18.00;39.30;;;;;;8334513;28;20011;-51
2022/02/17 17:00:49;;;;;;;;;;;18.00;39.40;;;;;;8334360;28;19929;-53
2022/02/17 17:04:50;;;;;;;;;;;18.00;39.30;;;;;;8333733;28;19917;-51
2022/02/17 17:08:50;;;;;;;;;;;18.00;39.30;;;;;;8334173;28;20385;-55
2022/02/17 17:12:51;;;;;;;;;;;18.00;39.30;;;;;;8333214;28;19971;-52
2022/02/17 17:16:52;;;;;;;;;;;18.00;39.30;;;;;;8333599;28;20401;-51
2022/02/17 17:20:52;;;;;;;;;;;18.00;39.30;;;;;;8333803;28;19929;-54
2022/02/17 17:24:53;;;;;;;;;;;18.10;39.40;;;;;;8332645;28;19917;-55
2022/02/17 17:28:53;;;;;;;;;;;18.10;39.20;;;;;;8333114;28;19952;-55
2022/02/17 17:32:54;;;;;;;;;;;18.00;39.20;;;;;;8333586;28;19921;-55
2022/02/17 17:36:54;;;;;;;;;;;18.00;39.10;;;;;;8333630;28;19944;-53
2022/02/17 17:40:55;;;;;;;;;;;18.00;39.10;;;;;;8332778;28;19955;-54
2022/02/17 17:49:15;;;;;;;;;;;18.00;39.10;;;;;;8333102;28;20317;-53
2022/02/17 17:53:17;;;;;;;;;;;18.00;39.10;;;;;;8332125;28;19928;-52
2022/02/17 17:57:17;;;;;;;;;;;18.00;39.10;;;;;;8333257;28;19925;-56
2022/02/17 18:01:18;;;;;;;;;;;18.10;39.10;;;;;;8331598;28;19972;-50
2022/02/17 18:05:18;;;;;;;;;;;18.00;39.10;;;;;;8332344;28;19918;-53
2022/02/17 18:09:19;;;;;;;;;;;18.00;39.10;;;;;;8332590;28;19971;-51
2022/02/17 18:13:19;;;;;;;;;;;18.10;39.10;;;;;;8331637;28;20004;-52
2022/02/17 18:17:20;;;;;;;;;;;18.00;39.00;;;;;;8332222;28;19978;-50
2022/02/17 18:21:20;;;;;;;;;;;18.10;39.10;;;;;;8331818;28;19948;-51
2022/02/17 18:25:21;;;;;;;;;;;18.00;39.00;;;;;;8331306;28;20653;-53
2022/02/17 18:29:21;;;;;;;;;;;18.10;39.00;;;;;;8331486;28;19921;-54
2022/02/17 18:33:22;;;;;;;;;;;18.00;39.00;;;;;;8331624;28;19939;-52
2022/02/17 18:37:22;;;;;;;;;;;18.00;39.00;;;;;;8331094;28;20302;-53
2022/02/17 18:41:23;;;;;;;;;;;18.00;39.00;;;;;;8331441;28;19948;-50
2022/02/17 18:45:27;;;;;;;;;;;18.10;39.10;;;;;;8331106;28;19943;-52
2022/02/17 18:49:27;;;;;;;;;;;18.10;39.10;;;;;;8330456;28;20294;-54
2022/02/17 18:53:28;;;;;;;;;;;18.10;39.10;;;;;;8330905;28;19932;-53
2022/02/17 18:57:28;;;;;;;;;;;18.00;39.00;;;;;;8331032;28;20004;-54
2022/02/17 19:01:29;;;;;;;;;;;18.00;39.00;;;;;;8330117;28;19932;-53
2022/02/17 19:05:29;;;;;;;;;;;18.00;39.00;;;;;;8330706;28;19917;-54
2022/02/17 19:09:30;;;;;;;;;;;18.00;39.00;;;;;;8330812;28;19917;-54
2022/02/17 19:13:30;;;;;;;;;;;18.00;39.00;;;;;;8330053;28;19917;-53
2022/02/17 19:17:31;;;;;;;;;;;18.00;39.00;;;;;;8330927;28;19948;-53
2022/02/17 19:21:31;;;;;;;;;;;18.00;39.00;;;;;;8330452;28;19976;-54
2022/02/17 19:25:32;;;;;;;;;;;18.00;39.00;;;;;;8329797;28;20377;-53
2022/02/17 19:29:33;;;;;;;;;;;18.00;39.00;;;;;;8330569;28;20462;-53
2022/02/17 19:33:33;;;;;;;;;;;18.10;39.00;;;;;;8330220;28;20378;-54
2022/02/17 19:37:35;;;;;;;;;;;18.10;39.00;;;;;;8330234;28;19913;-54
2022/02/17 19:41:35;;;;;;;;;;;18.10;39.00;;;;;;8329971;28;19925;-54
2022/02/17 19:45:36;;;;;;;;;;;18.10;39.00;;;;;;8330110;28;19917;-53
2022/02/17 19:49:37;;;;;;;;;;;18.10;39.50;;;;;;8334624;28;19917;-54
2022/02/17 19:53:37;;;;;;;;;;;18.10;39.00;;;;;;8336480;28;20370;-55
2022/02/17 19:57:38;;;;;;;;;;;18.00;38.90;;;;;;8336811;28;19944;-54
2022/02/17 20:01:38;;;;;;;;;;;18.00;38.90;;;;;;8327998;28;20008;-50
2022/02/17 20:05:40;;;;;;;;;;;18.10;38.90;;;;;;8323771;28;19923;-54
2022/02/17 20:09:41;;;;;;;;;;;18.10;38.90;;;;;;8336180;28;20366;-51
2022/02/17 20:13:41;;;;;;;;;;;18.10;38.90;;;;;;8335378;28;19950;-51
2022/02/17 20:17:42;;;;;;;;;;;18.00;38.80;;;;;;8335912;28;19960;-54
2022/02/17 20:21:43;;;;;;;;;;;18.10;38.80;;;;;;8335508;28;19925;-49
2022/02/17 20:25:43;;;;;;;;;;;18.10;38.90;;;;;;8334995;28;20365;-50
2022/02/17 20:29:44;;;;;;;;;;;18.00;38.90;;;;;;8335640;28;19928;-52
2022/02/17 20:33:44;;;;;;;;;;;18.10;38.90;;;;;;8335176;28;19933;-53
2022/02/17 20:37:45;;;;;;;;;;;18.10;38.90;;;;;;8334971;28;20347;-50
2022/02/17 20:41:45;;;;;;;;;;;18.10;38.90;;;;;;8334883;28;19929;-52
2022/02/17 20:54:24;;;;;;;;;;;18.10;38.80;;;;;;8338234;28;19971;-53
2022/02/17 20:58:25;;;;;;;;;;;18.00;38.80;;;;;;8334284;28;19917;-51
2022/02/17 21:02:25;;;;;;;;;;;18.10;38.80;;;;;;8334669;28;19972;-53
2022/02/17 21:06:26;;;;;;;;;;;18.00;38.80;;;;;;8334271;28;19963;-50
2022/02/17 21:10:27;;;;;;;;;;;18.10;38.80;;;;;;8332403;28;19917;-55
2022/02/17 21:14:28;;;;;;;;;;;18.10;38.80;;;;;;8334343;28;19929;-54
2022/02/17 21:18:28;;;;;;;;;;;18.00;38.80;;;;;;8334332;28;19928;-54
2022/02/17 21:22:28;;;;;;;;;;;18.10;38.80;;;;;;8333326;28;20364;-50
2022/02/17 21:26:30;;;;;;;;;;;18.00;38.70;;;;;;8333987;28;19917;-54
2022/02/17 21:30:31;;;;;;;;;;;18.10;38.80;;;;;;8333737;28;19917;-52
2022/02/17 21:34:33;;;;;;;;;;;18.10;38.70;;;;;;8332799;28;19923;-53
2022/02/17 21:38:33;;;;;;;;;;;18.10;38.70;;;;;;8333787;28;19944;-52
2022/02/17 21:42:34;;;;;;;;;;;18.10;38.70;;;;;;8333198;28;19925;-55
2022/02/17 21:46:34;;;;;;;;;;;18.10;38.60;;;;;;8332681;28;19987;-51
2022/02/17 21:50:35;;;;;;;;;;;18.10;38.70;;;;;;8332778;28;20358;-53
2022/02/17 21:54:35;;;;;;;;;;;18.10;38.60;;;;;;8332564;28;19960;-53
2022/02/17 21:58:36;;;;;;;;;;;18.10;38.60;;;;;;8332447;28;19958;-53
2022/02/17 22:02:36;;;;;;;;;;;18.10;39.10;;;;;;8332729;28;20325;-54
2022/02/17 22:06:37;;;;;;;;;;;18.10;38.60;;;;;;8332229;28;19921;-51
2022/02/17 22:10:37;;;;;;;;;;;18.10;38.50;;;;;;8331354;28;19917;-54
2022/02/17 22:14:39;;;;;;;;;;;18.10;38.50;;;;;;8332344;28;19921;-54
2022/02/17 22:18:41;;;;;;;;;;;18.10;38.50;;;;;;8332151;28;19917;-50
2022/02/17 22:22:42;;;;;;;;;;;18.10;38.50;;;;;;8331405;28;19934;-52
2022/02/17 22:26:43;;;;;;;;;;;18.10;38.50;;;;;;8331727;28;20326;-54
2022/02/17 22:30:43;;;;;;;;;;;18.10;38.50;;;;;;8331819;28;20337;-49
2022/02/17 22:34:44;;;;;;;;;;;18.10;38.40;;;;;;8331601;28;20386;-49
2022/02/17 22:38:44;;;;;;;;;;;18.10;38.40;;;;;;8332213;28;19957;-50
2022/02/17 22:42:45;;;;;;;;;;;18.10;38.40;;;;;;8331795;28;19960;-52
2022/02/17 22:46:45;;;;;;;;;;;18.10;38.30;;;;;;8332263;28;19924;-49
2022/02/17 22:50:45;;;;;;;;;;;18.10;38.30;;;;;;8331771;28;20496;-54
2022/02/17 22:54:46;;;;;;;;;;;18.10;38.30;;;;;;8331049;28;20007;-51
2022/02/17 22:58:46;;;;;;;;;;;18.10;38.40;;;;;;8330748;28;19925;-52
2022/02/17 23:02:47;;;;;;;;;;;18.10;38.30;;;;;;8314327;28;19926;-51
2022/02/17 23:06:49;;;;;;;;;;;18.00;38.30;;;;;;8317903;28;19917;-53
2022/02/17 23:10:49;;;;;;;;;;;18.10;38.30;;;;;;8330153;28;19928;-52
2022/02/17 23:18:38;;;;;;;;;;;18.00;38.30;;;;;;8330297;28;20370;-53
2022/02/17 23:19:10;;;;;;;;;;;18.00;38.30;;;;;;8330767;28;19924;-54
2022/02/17 23:23:11;;;;;;;;;;;18.00;38.30;;;;;;8328968;28;19925;-54
2022/02/17 23:27:11;;;;;;;;;;;18.00;38.30;;;;;;8330194;28;19917;-52
2022/02/17 23:31:12;;;;;;;;;;;18.00;38.30;;;;;;8330121;28;19987;-51
2022/02/17 23:35:13;;;;;;;;;;;18.00;38.30;;;;;;8329664;28;19917;-52